createdAt,value
2023-05-04T00:00:24.766Z,5.800
2023-05-04T00:01:26.844Z,4.400
2023-05-04T00:02:23.874Z,3.900
2023-05-04T00:03:23.874Z,5.099
2023-05-04T00:04:23.882Z,4.300
2023-05-04T00:05:24.629Z,5
2023-05-04T00:06:24.079Z,4.400
2023-05-04T00:07:23.684Z,3.599
2023-05-04T00:08:24.108Z,3.799
2023-05-04T00:09:23.563Z,4.599
2023-05-04T00:10:23.886Z,5.800
2023-05-04T00:11:24.294Z,4.300
2023-05-04T00:12:23.534Z,3.799
2023-05-04T00:13:23.928Z,5.099
2023-05-04T00:14:24.164Z,5.300
2023-05-04T00:15:23.749Z,4.400
2023-05-04T00:16:23.729Z,5.300
2023-05-04T00:17:24.176Z,4
2023-05-04T00:18:23.771Z,4.400
2023-05-04T00:19:23.966Z,5.199
2023-05-04T00:20:23.591Z,4.900
2023-05-04T00:21:23.656Z,4.800
2023-05-04T00:22:23.776Z,4
2023-05-04T00:23:23.874Z,4.099
2023-05-04T00:24:23.987Z,4
2023-05-04T00:25:23.825Z,4.099
2023-05-04T00:26:24.135Z,4.699
2023-05-04T00:27:23.679Z,4
2023-05-04T00:28:24.193Z,3.5
2023-05-04T00:29:23.925Z,4.5
2023-05-04T00:30:23.851Z,4.699
2023-05-04T00:31:23.834Z,3.799
2023-05-04T00:32:24.193Z,5.699
2023-05-04T00:33:23.694Z,4.699
2023-05-04T00:34:23.636Z,5.199
2023-05-04T00:35:23.873Z,4.099
2023-05-04T00:36:24.108Z,4
2023-05-04T00:37:23.784Z,4.300
2023-05-04T00:39:24.120Z,3.900
2023-05-04T00:40:23.845Z,4.099
2023-05-04T00:41:23.919Z,4
2023-05-04T00:42:24.246Z,4.300
2023-05-04T00:43:23.585Z,4.400
2023-05-04T00:44:24.190Z,3.799
2023-05-04T00:45:24.096Z,4.199
2023-05-04T00:46:23.796Z,4.099
2023-05-04T00:47:24.385Z,5.099
2023-05-04T00:48:23.799Z,4.199
2023-05-04T00:49:23.867Z,4
2023-05-04T00:50:24.243Z,5.5
2023-05-04T00:51:23.962Z,4.099
2023-05-04T00:52:23.951Z,3.700
2023-05-04T00:53:23.820Z,5.099
2023-05-04T00:54:23.932Z,3.400
2023-05-04T00:55:24.016Z,4.400
2023-05-04T00:57:24.325Z,4.5
2023-05-04T00:59:24.088Z,4
2023-05-04T01:00:24.424Z,4.300
2023-05-04T01:01:24.034Z,4.5
2023-05-04T01:02:24.169Z,3.700
2023-05-04T01:03:23.841Z,4.900
2023-05-04T01:04:23.539Z,3.700
2023-05-04T01:05:24.030Z,4.099
2023-05-04T01:06:23.819Z,3.900
2023-05-04T01:07:23.945Z,3.700
2023-05-04T01:08:24.134Z,4.199
2023-05-04T01:09:23.560Z,3.900
2023-05-04T01:11:24.135Z,3.400
2023-05-04T01:12:23.469Z,4.099
2023-05-04T01:13:23.785Z,4.5
2023-05-04T01:14:24.000Z,4.599
2023-05-04T01:15:24.305Z,4
2023-05-04T01:16:23.759Z,4.099
2023-05-04T01:17:24.343Z,4.5
2023-05-04T01:18:23.945Z,4.300
2023-05-04T01:19:24.224Z,4.400
2023-05-04T01:20:23.916Z,3.400
2023-05-04T01:21:24.504Z,3.299
2023-05-04T01:22:23.925Z,3.900
2023-05-04T01:23:24.018Z,4.300
2023-05-04T01:24:24.203Z,4.400
2023-05-04T01:25:23.777Z,4.099
2023-05-04T01:26:24.060Z,3.400
2023-05-04T01:27:23.756Z,3.900
2023-05-04T01:29:24.007Z,4
2023-05-04T01:30:23.809Z,3.799
2023-05-04T01:31:23.937Z,3.099
2023-05-04T01:32:23.438Z,2.900
2023-05-04T01:33:23.787Z,3.099
2023-05-04T01:34:23.835Z,3.900
2023-05-04T01:35:23.671Z,4
2023-05-04T01:36:23.680Z,3.799
2023-05-04T01:37:23.557Z,3.900
2023-05-04T01:38:23.661Z,3.200
2023-05-04T01:39:23.617Z,4.900
2023-05-04T01:40:23.649Z,3.400
2023-05-04T01:41:23.868Z,3.900
2023-05-04T01:42:23.854Z,4.800
2023-05-04T01:43:23.679Z,2.900
2023-05-04T01:44:23.606Z,3.299
2023-05-04T01:45:23.940Z,4.300
2023-05-04T01:46:24.289Z,3.5
2023-05-04T01:47:23.779Z,4.099
2023-05-04T01:48:23.756Z,3.099
2023-05-04T01:49:23.853Z,3.200
2023-05-04T01:50:24.235Z,4.5
2023-05-04T01:51:23.601Z,3.599
2023-05-04T01:53:23.829Z,4.5
2023-05-04T01:54:23.711Z,4
2023-05-04T01:55:24.121Z,4.300
2023-05-04T01:56:23.730Z,5.699
2023-05-04T01:57:24.204Z,4.699
2023-05-04T01:58:24.000Z,3.599
2023-05-04T01:59:23.992Z,4.099
2023-05-04T02:00:24.913Z,3.400
2023-05-04T02:01:23.673Z,4.400
2023-05-04T02:02:23.790Z,3.599
2023-05-04T02:04:23.576Z,4.900
2023-05-04T02:05:24.036Z,3.900
2023-05-04T02:06:24.083Z,3.700
2023-05-04T02:08:23.437Z,3.400
2023-05-04T02:09:23.642Z,4.800
2023-05-04T02:10:24.002Z,4.199
2023-05-04T02:11:24.038Z,5
2023-05-04T02:12:23.928Z,4.5
2023-05-04T02:14:23.955Z,4.699
2023-05-04T02:15:24.601Z,4.300
2023-05-04T02:16:24.088Z,3.799
2023-05-04T02:17:23.826Z,3.599
2023-05-04T02:18:23.882Z,3.5
2023-05-04T02:19:23.896Z,4.099
2023-05-04T02:20:23.445Z,4.599
2023-05-04T02:21:23.666Z,3.5
2023-05-04T02:22:24.019Z,4.699
2023-05-04T02:23:23.940Z,4.099
2023-05-04T02:24:23.994Z,4.5
2023-05-04T02:25:23.654Z,4.199
2023-05-04T02:26:23.905Z,4.699
2023-05-04T02:27:23.910Z,3.799
2023-05-04T02:28:24.105Z,4.199
2023-05-04T02:29:23.407Z,3.400
2023-05-04T02:30:23.813Z,3.299
2023-05-04T02:31:23.786Z,3.400
2023-05-04T02:32:23.978Z,4
2023-05-04T02:33:23.365Z,4.099
2023-05-04T02:34:23.634Z,4.400
2023-05-04T02:35:23.946Z,4
2023-05-04T02:37:23.757Z,3.400
2023-05-04T02:38:23.726Z,3.299
2023-05-04T02:39:24.116Z,4.599
2023-05-04T02:40:23.619Z,3.599
2023-05-04T02:41:23.978Z,3
2023-05-04T02:42:23.948Z,3.700
2023-05-04T02:43:23.981Z,4
2023-05-04T02:45:23.902Z,3.900
2023-05-04T02:46:24.255Z,5
2023-05-04T02:47:23.696Z,3.5
2023-05-04T02:48:24.641Z,3.700
2023-05-04T02:49:24.020Z,4.599
2023-05-04T02:50:23.565Z,4.400
2023-05-04T02:51:23.959Z,3.299
2023-05-04T02:52:23.723Z,3.200
2023-05-04T02:53:23.986Z,4.199
2023-05-04T02:54:24.299Z,4
2023-05-04T02:55:24.042Z,3.400
2023-05-04T02:57:27.253Z,3.900
2023-05-04T02:58:24.187Z,4
2023-05-04T02:59:23.409Z,4.199
2023-05-04T03:00:24.819Z,3.700
2023-05-04T03:01:23.653Z,4.300
2023-05-04T03:02:24.053Z,4.400
2023-05-04T03:03:23.606Z,3.400
2023-05-04T03:04:23.888Z,4.099
2023-05-04T03:06:23.762Z,3.099
2023-05-04T03:07:24.117Z,3.400
2023-05-04T03:08:23.428Z,3.599
2023-05-04T03:09:23.678Z,4.099
2023-05-04T03:10:24.110Z,4.199
2023-05-04T03:12:23.913Z,3.700
2023-05-04T03:13:23.498Z,3.5
2023-05-04T03:14:23.759Z,3.700
2023-05-04T03:15:24.591Z,3.799
2023-05-04T03:16:24.279Z,3.5
2023-05-04T03:17:24.401Z,4.199
2023-05-04T03:18:23.786Z,4.699
2023-05-04T03:19:23.452Z,4
2023-05-04T03:20:23.935Z,3.599
2023-05-04T03:21:24.005Z,3.400
2023-05-04T03:22:23.910Z,4.699
2023-05-04T03:23:23.862Z,6
2023-05-04T03:24:23.785Z,4.400
2023-05-04T03:25:23.887Z,4.199
2023-05-04T03:26:23.879Z,4.599
2023-05-04T03:27:23.946Z,4.900
2023-05-04T03:28:23.725Z,3.200
2023-05-04T03:29:23.707Z,4.5
2023-05-04T03:30:24.036Z,3.799
2023-05-04T03:31:24.040Z,4.099
2023-05-04T03:32:23.328Z,4
2023-05-04T03:34:23.924Z,4.199
2023-05-04T03:35:25.250Z,4.699
2023-05-04T03:36:23.682Z,4.099
2023-05-04T03:38:23.665Z,3.900
2023-05-04T03:39:24.041Z,4
2023-05-04T03:40:23.565Z,3.700
2023-05-04T03:41:23.908Z,3.5
2023-05-04T03:42:24.044Z,3.599
2023-05-04T03:43:23.393Z,4
2023-05-04T03:44:23.597Z,4.800
2023-05-04T03:45:24.371Z,4.400
2023-05-04T03:46:23.822Z,5.199
2023-05-04T03:47:23.313Z,4.5
2023-05-04T03:48:23.717Z,4.400
2023-05-04T03:49:28.934Z,5.099
2023-05-04T03:50:24.110Z,4.300
2023-05-04T03:51:23.638Z,3.799
2023-05-04T03:52:24.127Z,3.200
2023-05-04T03:53:23.740Z,3.900
2023-05-04T03:54:24.318Z,5.199
2023-05-04T03:55:24.450Z,3.599
2023-05-04T03:56:24.160Z,3.5
2023-05-04T03:57:23.854Z,3.799
2023-05-04T03:58:24.394Z,3.700
2023-05-04T03:59:23.735Z,3.5
2023-05-04T04:00:25.028Z,4.300
2023-05-04T04:01:23.856Z,3.799
2023-05-04T04:02:23.680Z,4.5
2023-05-04T04:03:24.097Z,5.400
2023-05-04T04:04:23.959Z,3.700
2023-05-04T04:05:23.817Z,4.699
2023-05-04T04:06:24.338Z,3.299
2023-05-04T04:07:24.106Z,4.699
2023-05-04T04:08:23.893Z,5
2023-05-04T04:09:24.496Z,4
2023-05-04T04:10:24.285Z,3.599
2023-05-04T04:11:23.747Z,5
2023-05-04T04:12:23.905Z,4.5
2023-05-04T04:13:23.603Z,3.900
2023-05-04T04:15:24.136Z,3.700
2023-05-04T04:16:23.756Z,3.900
2023-05-04T04:17:23.500Z,3.599
2023-05-04T04:18:23.899Z,3.5
2023-05-04T04:19:24.405Z,4.199
2023-05-04T04:20:24.056Z,4.599
2023-05-04T04:21:23.569Z,4
2023-05-04T04:22:23.912Z,5.699
2023-05-04T04:23:24.229Z,4.099
2023-05-04T04:24:23.820Z,4.400
2023-05-04T04:25:24.473Z,4.099
2023-05-04T04:26:24.261Z,3.400
2023-05-04T04:27:24.157Z,3.900
2023-05-04T04:28:23.738Z,4.599
2023-05-04T04:29:24.156Z,4
2023-05-04T04:30:24.279Z,4.300
2023-05-04T04:31:24.018Z,4.099
2023-05-04T04:32:23.826Z,3.900
2023-05-04T04:33:24.337Z,4
2023-05-04T04:34:23.995Z,4.400
2023-05-04T04:35:23.940Z,4.099
2023-05-04T04:36:23.782Z,3.5
2023-05-04T04:37:24.242Z,3.700
2023-05-04T04:38:24.015Z,3.799
2023-05-04T04:39:24.354Z,3.5
2023-05-04T04:40:24.179Z,5.800
2023-05-04T04:41:24.029Z,3.599
2023-05-04T04:43:24.244Z,3.700
2023-05-04T04:44:23.750Z,4.300
2023-05-04T04:45:24.618Z,3.799
2023-05-04T04:46:24.353Z,4.800
2023-05-04T04:47:24.180Z,3.5
2023-05-04T04:48:24.061Z,4.900
2023-05-04T04:49:24.159Z,3.599
2023-05-04T04:50:24.296Z,4.400
2023-05-04T04:51:24.289Z,3.900
2023-05-04T04:52:24.438Z,4
2023-05-04T04:54:24.066Z,3.299
2023-05-04T04:55:23.974Z,3.799
2023-05-04T04:56:23.751Z,4.400
2023-05-04T04:57:23.771Z,4.099
2023-05-04T04:58:24.368Z,5
2023-05-04T04:59:24.329Z,3.400
2023-05-04T05:00:25.225Z,5
2023-05-04T05:01:24.627Z,4.400
2023-05-04T05:03:23.838Z,4
2023-05-04T05:04:24.019Z,4.400
2023-05-04T05:05:23.992Z,4.099
2023-05-04T05:06:23.598Z,3.700
2023-05-04T05:07:24.281Z,4.199
2023-05-04T05:08:24.175Z,3.799
2023-05-04T05:09:24.055Z,4.300
2023-05-04T05:10:24.403Z,4.099
2023-05-04T05:11:24.188Z,3.099
2023-05-04T05:12:23.721Z,4.099
2023-05-04T05:13:24.374Z,3.5
2023-05-04T05:14:24.423Z,4.099
2023-05-04T05:15:24.721Z,3.299
2023-05-04T05:16:24.479Z,4.5
2023-05-04T05:17:24.466Z,3.599
2023-05-04T05:18:24.284Z,4.099
2023-05-04T05:19:23.841Z,4
2023-05-04T05:20:23.805Z,4.199
2023-05-04T05:21:23.889Z,4.599
2023-05-04T05:22:24.461Z,3.700
2023-05-04T05:23:24.074Z,5.099
2023-05-04T05:24:23.891Z,4.599
2023-05-04T05:25:24.140Z,3
2023-05-04T05:26:24.007Z,4.699
2023-05-04T05:27:23.941Z,6.5
2023-05-04T05:28:23.604Z,5.699
2023-05-04T05:29:24.007Z,4.900
2023-05-04T05:30:24.525Z,6.099
2023-05-04T05:31:24.091Z,5.199
2023-05-04T05:32:24.283Z,7.099
2023-05-04T05:33:24.480Z,5.5
2023-05-04T05:34:24.170Z,5.599
2023-05-04T05:35:24.129Z,7.400
2023-05-04T05:36:24.027Z,5.900
2023-05-04T05:37:23.752Z,6
2023-05-04T05:38:24.578Z,5.300
2023-05-04T05:39:24.611Z,5.099
2023-05-04T05:41:24.177Z,5.300
2023-05-04T05:44:24.135Z,5.400
2023-05-04T05:45:24.226Z,5
2023-05-04T05:46:24.192Z,5.199
2023-05-04T05:47:24.401Z,5.5
2023-05-04T05:48:23.656Z,4.5
2023-05-04T05:49:24.386Z,6.599
2023-05-04T05:50:24.568Z,5.900
2023-05-04T05:51:24.599Z,6.400
2023-05-04T05:52:24.164Z,6.599
2023-05-04T05:53:23.887Z,6.099
2023-05-04T05:54:23.704Z,5.400
2023-05-04T05:55:24.791Z,7
2023-05-04T05:56:24.326Z,6.099
2023-05-04T05:57:24.098Z,5.699
2023-05-04T05:58:24.158Z,6.300
2023-05-04T05:59:24.129Z,4.900
2023-05-04T06:00:25.256Z,3.900
2023-05-04T06:01:24.449Z,4.800
2023-05-04T06:02:24.442Z,4.900
2023-05-04T06:03:24.360Z,5.599
2023-05-04T06:04:24.338Z,5.699
2023-05-04T06:05:24.611Z,7.099
2023-05-04T06:06:24.427Z,5.5
2023-05-04T06:07:24.361Z,6.900
2023-05-04T06:08:24.244Z,6.300
2023-05-04T06:09:24.209Z,5.199
2023-05-04T06:10:24.227Z,5.5
2023-05-04T06:11:26.185Z,5.099
2023-05-04T06:12:24.207Z,6.099
2023-05-04T06:13:24.036Z,5.300
2023-05-04T06:15:24.459Z,5.699
2023-05-04T06:16:24.271Z,5.800
2023-05-04T06:17:24.500Z,4.699
2023-05-04T06:18:24.436Z,6.099
2023-05-04T06:19:23.947Z,6.300
2023-05-04T06:20:24.337Z,6.800
2023-05-04T06:21:24.677Z,6.400
2023-05-04T06:22:23.786Z,6.599
2023-05-04T06:23:23.854Z,6.5
2023-05-04T06:24:24.295Z,5.300
2023-05-04T06:25:24.273Z,4.599
2023-05-04T06:26:23.975Z,6.900
2023-05-04T06:27:24.423Z,6
2023-05-04T06:28:24.117Z,5.599
2023-05-04T06:29:23.691Z,5.300
2023-05-04T06:31:23.883Z,7.199
2023-05-04T06:32:23.917Z,5
2023-05-04T06:33:23.876Z,4.800
2023-05-04T06:34:23.452Z,4.699
2023-05-04T06:35:24.511Z,5.099
2023-05-04T06:36:24.099Z,8
2023-05-04T06:37:23.719Z,4.800
2023-05-04T06:38:24.408Z,5.099
2023-05-04T06:39:24.251Z,9.100
2023-05-04T06:40:24.398Z,7
2023-05-04T06:41:24.188Z,7.599
2023-05-04T06:42:23.855Z,7.800
2023-05-04T06:43:23.807Z,5.5
2023-05-04T06:44:24.288Z,5.099
2023-05-04T06:45:24.328Z,4.400
2023-05-04T06:46:24.221Z,4.599
2023-05-04T06:47:24.379Z,6.199
2023-05-04T06:48:24.709Z,6.099
2023-05-04T06:49:23.743Z,6.800
2023-05-04T06:50:24.595Z,6.300
2023-05-04T06:51:24.330Z,5.699
2023-05-04T06:52:24.039Z,5.300
2023-05-04T06:53:23.731Z,6.599
2023-05-04T06:54:24.499Z,5.300
2023-05-04T06:55:24.510Z,7.800
2023-05-04T06:56:24.368Z,5
2023-05-04T06:57:24.256Z,8
2023-05-04T06:58:24.245Z,6.599
2023-05-04T06:59:23.932Z,5.599
2023-05-04T07:00:24.629Z,7.099
2023-05-04T07:01:24.726Z,6
2023-05-04T07:02:23.752Z,4.800
2023-05-04T07:03:24.074Z,7.300
2023-05-04T07:04:24.030Z,4.099
2023-05-04T07:05:24.401Z,9
2023-05-04T07:06:46.421Z,4.400
2023-05-04T07:07:24.690Z,4.800
2023-05-04T07:09:28.363Z,5.099
2023-05-04T07:10:24.337Z,5.599
2023-05-04T07:11:24.409Z,5.900
2023-05-04T07:12:24.361Z,6.800
2023-05-04T07:13:24.670Z,5
2023-05-04T07:14:23.883Z,6.599
2023-05-04T07:15:24.565Z,5.300
2023-05-04T07:16:24.721Z,6
2023-05-04T07:17:23.915Z,5.300
2023-05-04T07:18:24.125Z,4.400
2023-05-04T07:19:24.053Z,5.699
2023-05-04T07:20:26.124Z,7.300
2023-05-04T07:22:24.350Z,7.400
2023-05-04T07:23:24.360Z,6.199
2023-05-04T07:24:24.474Z,6.400
2023-05-04T07:25:24.420Z,7.199
2023-05-04T07:26:24.172Z,7.599
2023-05-04T07:27:23.786Z,10
2023-05-04T07:28:23.844Z,9.199
2023-05-04T07:29:23.804Z,7.699
2023-05-04T07:30:24.845Z,8.100
2023-05-04T07:31:23.813Z,9.399
2023-05-04T07:32:23.707Z,5.099
2023-05-04T07:33:23.760Z,6.400
2023-05-04T07:34:33.918Z,5.900
2023-05-04T07:35:24.948Z,7.099
2023-05-04T07:36:24.470Z,4.300
2023-05-04T07:37:24.584Z,6.900
2023-05-04T07:38:24.402Z,6
2023-05-04T07:39:23.829Z,5.400
2023-05-04T07:40:24.130Z,6.699
2023-05-04T07:42:23.820Z,6.400
2023-05-04T07:43:24.577Z,5.800
2023-05-04T07:44:24.197Z,5
2023-05-04T07:45:24.393Z,7
2023-05-04T07:46:24.317Z,9.100
2023-05-04T07:47:24.784Z,6.5
2023-05-04T07:48:26.344Z,6.300
2023-05-04T07:49:24.355Z,6
2023-05-04T07:50:24.574Z,6.199
2023-05-04T07:51:24.025Z,6.699
2023-05-04T07:52:23.932Z,6
2023-05-04T07:53:23.786Z,7.5
2023-05-04T07:54:23.750Z,7.199
2023-05-04T07:55:24.355Z,6.300
2023-05-04T07:56:24.242Z,6.900
2023-05-04T07:57:24.225Z,7.900
2023-05-04T07:58:24.441Z,7.800
2023-05-04T07:59:24.401Z,6.300
2023-05-04T08:00:25.420Z,4.400
2023-05-04T08:01:24.513Z,4.599
2023-05-04T08:02:24.284Z,7.800
2023-05-04T08:03:24.396Z,6.599
2023-05-04T08:04:24.208Z,9.100
2023-05-04T08:05:24.885Z,6.5
2023-05-04T08:06:24.233Z,10.69
2023-05-04T08:07:23.969Z,8.5
2023-05-04T08:08:24.863Z,6.900
2023-05-04T08:09:23.913Z,6.199
2023-05-04T08:10:24.153Z,7.099
2023-05-04T08:11:24.087Z,5.5
2023-05-04T08:12:24.020Z,7
2023-05-04T08:13:23.946Z,6.699
2023-05-04T08:14:23.857Z,7.699
2023-05-04T08:15:23.760Z,6.599
2023-05-04T08:16:23.808Z,6.300
2023-05-04T08:17:23.930Z,7.400
2023-05-04T08:18:23.922Z,10.10
2023-05-04T08:19:23.813Z,13.10
2023-05-04T08:20:24.197Z,13.39
2023-05-04T08:21:23.872Z,9
2023-05-04T08:22:23.805Z,8.800
2023-05-04T08:23:24.499Z,6.400
2023-05-04T08:24:24.176Z,6.099
2023-05-04T08:25:24.200Z,5.800
2023-05-04T08:26:24.033Z,7.199
2023-05-04T08:27:23.731Z,7
2023-05-04T08:28:24.526Z,7.599
2023-05-04T08:29:24.314Z,5.800
2023-05-04T08:30:24.633Z,7.099
2023-05-04T08:31:23.628Z,5.300
2023-05-04T08:32:24.522Z,6.599
2023-05-04T08:33:24.351Z,5.599
2023-05-04T08:34:23.942Z,6.900
2023-05-04T08:35:23.915Z,6.599
2023-05-04T08:36:23.741Z,6.199
2023-05-04T08:37:24.320Z,7.900
2023-05-04T08:38:24.338Z,6.300
2023-05-04T08:39:24.066Z,10
2023-05-04T08:40:23.989Z,6
2023-05-04T08:41:23.745Z,6.900
2023-05-04T08:42:24.527Z,6.099
2023-05-04T08:43:24.283Z,7.300
2023-05-04T08:44:23.877Z,6.599
2023-05-04T08:46:24.491Z,10
2023-05-04T08:47:24.489Z,8.399
2023-05-04T08:48:24.616Z,10.60
2023-05-04T08:49:24.617Z,6.800
2023-05-04T08:50:24.679Z,6.699
2023-05-04T08:51:24.587Z,5.400
2023-05-04T08:52:24.484Z,5.300
2023-05-04T08:53:32.255Z,7.199
2023-05-04T08:54:24.255Z,9.100
2023-05-04T08:55:24.501Z,6.800
2023-05-04T08:56:24.419Z,7.800
2023-05-04T08:57:24.248Z,8.899
2023-05-04T08:58:24.198Z,6.900
2023-05-04T08:59:24.015Z,6.5
2023-05-04T09:00:24.634Z,6.699
2023-05-04T09:01:38.380Z,7.099
2023-05-04T09:02:24.457Z,8.5
2023-05-04T09:03:24.495Z,10.5
2023-05-04T09:04:24.728Z,8
2023-05-04T09:05:24.528Z,9.399
2023-05-04T09:06:24.324Z,7.800
2023-05-04T09:07:37.986Z,7.300
2023-05-04T09:08:23.765Z,6.800
2023-05-04T09:09:24.589Z,7.300
2023-05-04T09:10:24.359Z,6.400
2023-05-04T09:11:24.198Z,7.800
2023-05-04T09:12:24.171Z,6.300
2023-05-04T09:13:24.019Z,8.800
2023-05-04T09:14:23.540Z,9.199
2023-05-04T09:15:24.446Z,7.199
2023-05-04T09:16:24.137Z,6.800
2023-05-04T09:17:24.027Z,5.199
2023-05-04T09:18:24.563Z,6.400
2023-05-04T09:19:24.161Z,7.099
2023-05-04T09:20:24.267Z,6.800
2023-05-04T09:21:24.235Z,6.699
2023-05-04T09:22:23.907Z,7.699
2023-05-04T09:23:23.983Z,10.39
2023-05-04T09:24:24.111Z,5.400
2023-05-04T09:25:24.042Z,5
2023-05-04T09:26:23.792Z,5.5
2023-05-04T09:27:24.445Z,4.400
2023-05-04T09:28:24.143Z,4.699
2023-05-04T09:29:24.069Z,5.699
2023-05-04T09:30:24.589Z,5.300
2023-05-04T09:31:24.485Z,5.400
2023-05-04T09:32:24.442Z,5
2023-05-04T09:33:24.266Z,5.099
2023-05-04T09:34:23.736Z,5.199
2023-05-04T09:35:32.365Z,4.699
2023-05-04T09:36:23.781Z,5.699
2023-05-04T09:37:23.854Z,6.800
2023-05-04T09:38:24.084Z,5.099
2023-05-04T09:39:23.848Z,5.300
2023-05-04T09:40:23.944Z,4.800
2023-05-04T09:41:23.726Z,6.099
2023-05-04T09:42:24.282Z,5.800
2023-05-04T09:43:23.926Z,5.199
2023-05-04T09:44:24.087Z,6.300
2023-05-04T09:45:24.254Z,4.599
2023-05-04T09:46:24.617Z,5.800
2023-05-04T09:47:24.023Z,4.900
2023-05-04T09:48:24.122Z,5
2023-05-04T09:49:24.152Z,5.5
2023-05-04T09:51:24.074Z,4.900
2023-05-04T09:52:24.154Z,5.599
2023-05-04T09:53:24.218Z,4.5
2023-05-04T09:54:24.326Z,4.900
2023-05-04T09:55:24.472Z,4.800
2023-05-04T09:56:24.564Z,4.5
2023-05-04T09:57:24.522Z,6.699
2023-05-04T09:58:24.468Z,4.599
2023-05-04T09:59:24.229Z,4.400
2023-05-04T10:00:24.923Z,4.199
2023-05-04T10:01:23.827Z,4.900
2023-05-04T10:02:24.105Z,5
2023-05-04T10:03:24.322Z,4.099
2023-05-04T10:04:24.127Z,5.099
2023-05-04T10:05:24.399Z,4.900
2023-05-04T10:06:24.370Z,5.699
2023-05-04T10:07:24.307Z,3.200
2023-05-04T10:08:24.100Z,5.199
2023-05-04T10:09:23.925Z,4
2023-05-04T10:10:23.956Z,3.900
2023-05-04T10:11:24.135Z,5
2023-05-04T10:12:23.913Z,4.599
2023-05-04T10:13:24.084Z,7.5
2023-05-04T10:14:24.136Z,6.400
2023-05-04T10:16:28.225Z,5.699
2023-05-04T10:17:24.188Z,8.100
2023-05-04T10:18:24.140Z,5
2023-05-04T10:19:24.490Z,6.300
2023-05-04T10:20:24.796Z,5.699
2023-05-04T10:21:24.222Z,5
2023-05-04T10:22:23.955Z,11
2023-05-04T10:23:24.176Z,6.900
2023-05-04T10:24:23.944Z,7.599
2023-05-04T10:25:23.906Z,6.900
2023-05-04T10:26:23.767Z,5.900
2023-05-04T10:27:24.451Z,8.600
2023-05-04T10:28:24.243Z,9
2023-05-04T10:29:24.244Z,11.10
2023-05-04T10:30:24.183Z,7.400
2023-05-04T10:31:23.883Z,5.300
2023-05-04T10:32:23.760Z,4.900
2023-05-04T10:33:23.842Z,5.5
2023-05-04T10:34:24.412Z,4.599
2023-05-04T10:36:24.317Z,5.699
2023-05-04T10:37:23.927Z,3.799
2023-05-04T10:38:23.561Z,4.699
2023-05-04T10:39:24.662Z,4.199
2023-05-04T10:40:24.170Z,5.300
2023-05-04T10:41:23.916Z,6
2023-05-04T10:42:24.023Z,4.5
2023-05-04T10:43:24.527Z,5.800
2023-05-04T10:44:23.970Z,4
2023-05-04T10:45:24.293Z,4.400
2023-05-04T10:46:24.299Z,5.5
2023-05-04T10:47:24.082Z,4.099
2023-05-04T10:48:23.753Z,5
2023-05-04T10:49:24.019Z,4.199
2023-05-04T10:50:24.458Z,4.800
2023-05-04T10:51:28.082Z,4.5
2023-05-04T10:52:24.701Z,4.599
2023-05-04T10:53:24.853Z,5.5
2023-05-04T10:54:23.972Z,4.5
2023-05-04T10:55:24.400Z,5.800
2023-05-04T10:56:24.494Z,4.699
2023-05-04T10:57:24.518Z,5.699
2023-05-04T10:58:24.501Z,4.800
2023-05-04T10:59:24.481Z,5.400
2023-05-04T11:00:25.164Z,4.699
2023-05-04T11:01:24.139Z,5
2023-05-04T11:02:24.448Z,6.699
2023-05-04T11:03:24.487Z,6.199
2023-05-04T11:04:23.770Z,5.900
2023-05-04T11:05:24.537Z,4.5
2023-05-04T11:06:24.472Z,3.900
2023-05-04T11:07:24.214Z,4.900
2023-05-04T11:08:24.234Z,4
2023-05-04T11:09:24.239Z,5.5
2023-05-04T11:10:24.014Z,6.199
2023-05-04T11:11:23.968Z,4.900
2023-05-04T11:12:28.778Z,6.300
2023-05-04T11:13:23.945Z,7
2023-05-04T11:14:23.988Z,9
2023-05-04T11:15:24.014Z,5.099
2023-05-04T11:16:24.187Z,5.199
2023-05-04T11:17:28.189Z,5.099
2023-05-04T11:18:32.013Z,4.099
2023-05-04T11:19:23.945Z,5.599
2023-05-04T11:20:23.916Z,6.400
2023-05-04T11:21:23.717Z,4.300
2023-05-04T11:22:24.148Z,6.900
2023-05-04T11:23:24.324Z,4.400
2023-05-04T11:24:24.373Z,8.199
2023-05-04T11:25:24.269Z,5.199
2023-05-04T11:26:23.901Z,5.300
2023-05-04T11:27:23.753Z,5.5
2023-05-04T11:28:23.892Z,4.400
2023-05-04T11:29:23.841Z,4.900
2023-05-04T11:30:24.245Z,4.099
2023-05-04T11:31:24.449Z,4.900
2023-05-04T11:32:38.522Z,4.400
2023-05-04T11:33:24.484Z,5.400
2023-05-04T11:34:24.248Z,6.5
2023-05-04T11:35:24.322Z,5
2023-05-04T11:36:24.073Z,5.599
2023-05-04T11:37:24.136Z,7
2023-05-04T11:38:24.011Z,7.5
2023-05-04T11:39:23.888Z,8.399
2023-05-04T11:40:24.072Z,6.900
2023-05-04T11:41:24.308Z,4.5
2023-05-04T11:42:23.950Z,7.400
2023-05-04T11:43:24.078Z,6.900
2023-05-04T11:44:23.848Z,6.800
2023-05-04T11:45:24.341Z,5
2023-05-04T11:46:24.103Z,5.400
2023-05-04T11:47:24.126Z,5.900
2023-05-04T11:48:24.340Z,5.199
2023-05-04T11:49:24.363Z,5.300
2023-05-04T11:50:24.481Z,5.400
2023-05-04T11:51:24.256Z,5.800
2023-05-04T11:52:24.442Z,6.699
2023-05-04T11:53:24.390Z,5.199
2023-05-04T11:54:24.414Z,6.099
2023-05-04T11:55:24.339Z,5.900
2023-05-04T11:56:24.079Z,5.699
2023-05-04T11:57:24.083Z,5.900
2023-05-04T11:58:23.996Z,8.600
2023-05-04T11:59:24.240Z,5.800
2023-05-04T12:00:24.823Z,6.599
2023-05-04T12:01:24.294Z,9.600
2023-05-04T12:02:24.088Z,6.099
2023-05-04T12:03:25.929Z,7
2023-05-04T12:04:23.933Z,5
2023-05-04T12:05:23.727Z,6.5
2023-05-04T12:06:23.927Z,5.099
2023-05-04T12:07:24.080Z,5
2023-05-04T12:09:24.062Z,7.599
2023-05-04T12:10:24.441Z,6
2023-05-04T12:11:24.264Z,8.800
2023-05-04T12:12:23.933Z,4
2023-05-04T12:13:23.762Z,6.900
2023-05-04T12:14:23.994Z,5
2023-05-04T12:15:24.437Z,5.800
2023-05-04T12:16:24.311Z,5.599
2023-05-04T12:17:24.452Z,4.800
2023-05-04T12:18:24.504Z,4.5
2023-05-04T12:19:24.346Z,5.099
2023-05-04T12:20:24.342Z,5.400
2023-05-04T12:21:24.130Z,5
2023-05-04T12:22:24.218Z,5.199
2023-05-04T12:23:24.282Z,5.599
2023-05-04T12:25:28.590Z,5.099
2023-05-04T12:26:24.531Z,5
2023-05-04T12:27:24.467Z,4.400
2023-05-04T12:28:24.249Z,5.300
2023-05-04T12:29:23.913Z,5.199
2023-05-04T12:30:23.989Z,5
2023-05-04T12:31:25.145Z,5.300
2023-05-04T12:32:23.891Z,4.699
2023-05-04T12:34:24.851Z,4.5
2023-05-04T12:35:24.547Z,4
2023-05-04T12:36:24.481Z,8.100
2023-05-04T12:37:25.144Z,4.099
2023-05-04T12:38:24.376Z,3.900
2023-05-04T12:39:24.621Z,5.5
2023-05-04T12:40:28.737Z,3.799
2023-05-04T12:41:24.081Z,6.099
2023-05-04T12:42:23.988Z,5.900
2023-05-04T12:43:23.650Z,7
2023-05-04T12:44:23.865Z,6.099
2023-05-04T12:45:24.723Z,6.5
2023-05-04T12:46:24.117Z,7
2023-05-04T12:47:24.455Z,5.800
2023-05-04T12:48:24.496Z,7.400
2023-05-04T12:49:24.891Z,5.300
2023-05-04T12:50:24.072Z,5.199
2023-05-04T12:51:24.441Z,7.400
2023-05-04T12:52:24.468Z,7
2023-05-04T12:53:23.872Z,5.400
2023-05-04T12:54:24.117Z,8.399
2023-05-04T12:55:25.646Z,5.400
2023-05-04T12:56:24.066Z,6.699
2023-05-04T12:57:24.104Z,8
2023-05-04T12:58:24.009Z,4.099
2023-05-04T12:59:23.955Z,7.099
2023-05-04T13:00:24.838Z,4.199
2023-05-04T13:01:24.138Z,6.099
2023-05-04T13:02:24.625Z,5.5
2023-05-04T13:03:24.109Z,7.199
2023-05-04T13:04:24.559Z,5.699
2023-05-04T13:05:24.500Z,3.900
2023-05-04T13:06:24.643Z,5.599
2023-05-04T13:07:24.664Z,3.900
2023-05-04T13:08:23.829Z,4.699
2023-05-04T13:09:24.012Z,6.300
2023-05-04T13:10:24.068Z,5.800
2023-05-04T13:11:24.284Z,5.099
2023-05-04T13:12:24.718Z,5.699
2023-05-04T13:13:24.171Z,5.5
2023-05-04T13:14:24.148Z,6.5
2023-05-04T13:15:24.079Z,4.5
2023-05-04T13:16:24.261Z,5.400
2023-05-04T13:17:24.274Z,8.699
2023-05-04T13:18:24.614Z,8.100
2023-05-04T13:19:24.775Z,10.69
2023-05-04T13:20:25.054Z,7.599
2023-05-04T13:21:24.093Z,8.600
2023-05-04T13:22:24.020Z,8
2023-05-04T13:23:24.006Z,7.099
2023-05-04T13:24:24.076Z,6
2023-05-04T13:25:24.207Z,6.5
2023-05-04T13:26:24.358Z,5.400
2023-05-04T13:27:24.627Z,5.800
2023-05-04T13:28:24.685Z,8.699
2023-05-04T13:29:23.847Z,8.100
2023-05-04T13:30:23.894Z,6
2023-05-04T13:31:28.974Z,14.30
2023-05-04T13:32:24.178Z,10.60
2023-05-04T13:34:24.119Z,7.5
2023-05-04T13:35:24.114Z,6.599
2023-05-04T13:36:24.272Z,10.39
2023-05-04T13:38:24.078Z,7.5
2023-05-04T13:39:28.966Z,8.399
2023-05-04T13:40:24.668Z,7.199
2023-05-04T13:41:23.854Z,6.199
2023-05-04T13:42:24.124Z,7.400
2023-05-04T13:43:24.095Z,6.300
2023-05-04T13:44:24.024Z,7.5
2023-05-04T13:45:32.334Z,9.300
2023-05-04T13:46:24.553Z,5.699
2023-05-04T13:47:24.656Z,5.099